sensor_id;sensor_type;location;lat;lon;timestamp;P1;durP1;ratioP1;P2;durP2;ratioP2
13327;SDS011;6733;51.044;3.746;2023-03-31T00:00:51;11.20;;;3.87;;
13327;SDS011;6733;51.044;3.746;2023-03-31T00:03:19;12.37;;;3.73;;
13327;SDS011;6733;51.044;3.746;2023-03-31T00:05:56;11.80;;;4.43;;
13327;SDS011;6733;51.044;3.746;2023-03-31T00:08:24;16.00;;;4.10;;
13327;SDS011;6733;51.044;3.746;2023-03-31T00:10:57;14.70;;;4.07;;
13327;SDS011;6733;51.044;3.746;2023-03-31T00:13:25;12.63;;;4.10;;
13327;SDS011;6733;51.044;3.746;2023-03-31T00:16:01;13.03;;;3.57;;
13327;SDS011;6733;51.044;3.746;2023-03-31T00:18:30;11.50;;;3.90;;
13327;SDS011;6733;51.044;3.746;2023-03-31T00:21:07;19.13;;;3.97;;
13327;SDS011;6733;51.044;3.746;2023-03-31T00:23:39;11.67;;;3.97;;
13327;SDS011;6733;51.044;3.746;2023-03-31T00:26:06;16.63;;;4.40;;
13327;SDS011;6733;51.044;3.746;2023-03-31T00:28:32;11.93;;;3.87;;
13327;SDS011;6733;51.044;3.746;2023-03-31T00:30:59;12.17;;;3.97;;
13327;SDS011;6733;51.044;3.746;2023-03-31T00:33:27;16.47;;;4.63;;
13327;SDS011;6733;51.044;3.746;2023-03-31T00:35:54;13.50;;;4.07;;
13327;SDS011;6733;51.044;3.746;2023-03-31T00:38:20;14.00;;;3.80;;
13327;SDS011;6733;51.044;3.746;2023-03-31T00:40:46;13.50;;;4.47;;
13327;SDS011;6733;51.044;3.746;2023-03-31T00:43:22;14.47;;;4.23;;
13327;SDS011;6733;51.044;3.746;2023-03-31T00:46:22;11.23;;;3.73;;
13327;SDS011;6733;51.044;3.746;2023-03-31T00:48:54;12.23;;;3.40;;
13327;SDS011;6733;51.044;3.746;2023-03-31T00:51:23;10.03;;;3.40;;
13327;SDS011;6733;51.044;3.746;2023-03-31T00:53:58;11.03;;;3.60;;
13327;SDS011;6733;51.044;3.746;2023-03-31T00:56:31;11.10;;;3.70;;
13327;SDS011;6733;51.044;3.746;2023-03-31T00:59:02;11.50;;;3.40;;
13327;SDS011;6733;51.044;3.746;2023-03-31T01:01:33;14.27;;;4.67;;
13327;SDS011;6733;51.044;3.746;2023-03-31T01:04:01;13.53;;;3.57;;
13327;SDS011;6733;51.044;3.746;2023-03-31T01:06:28;11.17;;;3.73;;
13327;SDS011;6733;51.044;3.746;2023-03-31T01:08:55;11.03;;;3.83;;
13327;SDS011;6733;51.044;3.746;2023-03-31T01:11:23;8.63;;;3.40;;
13327;SDS011;6733;51.044;3.746;2023-03-31T01:13:52;10.20;;;3.60;;
13327;SDS011;6733;51.044;3.746;2023-03-31T01:16:20;14.13;;;4.10;;
13327;SDS011;6733;51.044;3.746;2023-03-31T01:18:47;12.80;;;3.40;;
13327;SDS011;6733;51.044;3.746;2023-03-31T01:24:20;8.50;;;3.27;;
13327;SDS011;6733;51.044;3.746;2023-03-31T01:45:56;9.33;;;2.90;;
13327;SDS011;6733;51.044;3.746;2023-03-31T01:48:35;9.63;;;2.97;;
13327;SDS011;6733;51.044;3.746;2023-03-31T01:51:12;9.03;;;3.13;;
13327;SDS011;6733;51.044;3.746;2023-03-31T01:54:10;14.23;;;3.80;;
13327;SDS011;6733;51.044;3.746;2023-03-31T01:57:05;10.17;;;3.27;;
13327;SDS011;6733;51.044;3.746;2023-03-31T02:02:27;12.63;;;4.03;;
13327;SDS011;6733;51.044;3.746;2023-03-31T02:05:23;8.50;;;3.10;;
13327;SDS011;6733;51.044;3.746;2023-03-31T02:07:55;12.27;;;3.87;;
13327;SDS011;6733;51.044;3.746;2023-03-31T02:10:24;8.63;;;3.60;;
13327;SDS011;6733;51.044;3.746;2023-03-31T02:12:53;11.43;;;3.77;;
13327;SDS011;6733;51.044;3.746;2023-03-31T02:15:25;13.57;;;3.60;;
13327;SDS011;6733;51.044;3.746;2023-03-31T02:17:56;8.87;;;3.27;;
13327;SDS011;6733;51.044;3.746;2023-03-31T02:20:24;13.70;;;3.87;;
13327;SDS011;6733;51.044;3.746;2023-03-31T02:22:54;10.00;;;3.50;;
13327;SDS011;6733;51.044;3.746;2023-03-31T02:25:23;7.30;;;2.87;;
13327;SDS011;6733;51.044;3.746;2023-03-31T02:28:00;11.13;;;4.03;;
13327;SDS011;6733;51.044;3.746;2023-03-31T02:30:45;10.70;;;3.20;;
13327;SDS011;6733;51.044;3.746;2023-03-31T02:33:56;8.23;;;2.80;;
13327;SDS011;6733;51.044;3.746;2023-03-31T02:36:48;8.80;;;3.37;;
13327;SDS011;6733;51.044;3.746;2023-03-31T02:39:16;11.77;;;3.47;;
13327;SDS011;6733;51.044;3.746;2023-03-31T02:41:48;6.77;;;2.57;;
13327;SDS011;6733;51.044;3.746;2023-03-31T02:44:14;9.30;;;2.90;;
13327;SDS011;6733;51.044;3.746;2023-03-31T02:46:42;8.80;;;2.90;;
13327;SDS011;6733;51.044;3.746;2023-03-31T02:49:09;9.67;;;2.57;;
13327;SDS011;6733;51.044;3.746;2023-03-31T02:52:27;6.53;;;2.30;;
13327;SDS011;6733;51.044;3.746;2023-03-31T02:57:43;3.43;;;1.80;;
13327;SDS011;6733;51.044;3.746;2023-03-31T03:11:51;2.53;;;1.50;;
13327;SDS011;6733;51.044;3.746;2023-03-31T03:19:52;4.47;;;1.90;;
13327;SDS011;6733;51.044;3.746;2023-03-31T03:22:20;3.13;;;1.13;;
13327;SDS011;6733;51.044;3.746;2023-03-31T03:24:47;2.83;;;1.40;;
13327;SDS011;6733;51.044;3.746;2023-03-31T03:27:13;2.33;;;1.30;;
13327;SDS011;6733;51.044;3.746;2023-03-31T03:29:40;4.67;;;1.20;;
13327;SDS011;6733;51.044;3.746;2023-03-31T03:32:07;3.63;;;1.37;;
13327;SDS011;6733;51.044;3.746;2023-03-31T03:34:34;2.90;;;1.07;;
13327;SDS011;6733;51.044;3.746;2023-03-31T03:37:01;2.57;;;0.93;;
13327;SDS011;6733;51.044;3.746;2023-03-31T03:39:27;3.20;;;1.33;;
13327;SDS011;6733;51.044;3.746;2023-03-31T03:41:53;3.53;;;1.10;;
13327;SDS011;6733;51.044;3.746;2023-03-31T03:44:20;1.87;;;1.17;;
13327;SDS011;6733;51.044;3.746;2023-03-31T03:46:46;2.57;;;1.20;;
13327;SDS011;6733;51.044;3.746;2023-03-31T03:49:12;3.10;;;0.90;;
13327;SDS011;6733;51.044;3.746;2023-03-31T03:51:38;2.47;;;1.27;;
13327;SDS011;6733;51.044;3.746;2023-03-31T03:54:04;1.50;;;1.20;;
13327;SDS011;6733;51.044;3.746;2023-03-31T03:56:31;1.07;;;0.93;;
13327;SDS011;6733;51.044;3.746;2023-03-31T03:58:57;1.27;;;1.03;;
13327;SDS011;6733;51.044;3.746;2023-03-31T04:01:24;2.53;;;1.20;;
13327;SDS011;6733;51.044;3.746;2023-03-31T04:03:50;1.30;;;1.20;;
13327;SDS011;6733;51.044;3.746;2023-03-31T04:06:16;3.73;;;1.30;;
13327;SDS011;6733;51.044;3.746;2023-03-31T04:08:42;3.13;;;1.40;;
13327;SDS011;6733;51.044;3.746;2023-03-31T04:11:12;2.87;;;1.40;;
13327;SDS011;6733;51.044;3.746;2023-03-31T04:13:42;2.33;;;1.10;;
13327;SDS011;6733;51.044;3.746;2023-03-31T04:16:11;1.43;;;1.03;;
13327;SDS011;6733;51.044;3.746;2023-03-31T04:18:38;1.87;;;0.80;;
13327;SDS011;6733;51.044;3.746;2023-03-31T04:21:12;1.73;;;1.03;;
13327;SDS011;6733;51.044;3.746;2023-03-31T04:23:47;2.87;;;0.93;;
13327;SDS011;6733;51.044;3.746;2023-03-31T04:26:16;1.50;;;1.20;;
13327;SDS011;6733;51.044;3.746;2023-03-31T04:28:43;3.80;;;1.37;;
13327;SDS011;6733;51.044;3.746;2023-03-31T04:31:15;3.70;;;1.33;;
13327;SDS011;6733;51.044;3.746;2023-03-31T04:33:53;6.43;;;1.50;;
13327;SDS011;6733;51.044;3.746;2023-03-31T04:36:20;2.17;;;1.40;;
13327;SDS011;6733;51.044;3.746;2023-03-31T04:38:47;2.83;;;1.30;;
13327;SDS011;6733;51.044;3.746;2023-03-31T04:41:19;5.70;;;1.50;;
13327;SDS011;6733;51.044;3.746;2023-03-31T04:43:46;3.93;;;1.37;;
13327;SDS011;6733;51.044;3.746;2023-03-31T04:46:12;3.30;;;1.60;;
13327;SDS011;6733;51.044;3.746;2023-03-31T04:48:38;2.40;;;1.27;;
13327;SDS011;6733;51.044;3.746;2023-03-31T04:51:04;5.30;;;1.40;;
13327;SDS011;6733;51.044;3.746;2023-03-31T04:53:31;1.73;;;1.40;;
13327;SDS011;6733;51.044;3.746;2023-03-31T04:55:57;4.73;;;1.80;;
13327;SDS011;6733;51.044;3.746;2023-03-31T04:58:23;4.93;;;2.03;;
13327;SDS011;6733;51.044;3.746;2023-03-31T05:00:50;7.80;;;2.47;;
13327;SDS011;6733;51.044;3.746;2023-03-31T05:03:17;5.23;;;2.30;;
13327;SDS011;6733;51.044;3.746;2023-03-31T05:05:43;4.63;;;2.30;;
13327;SDS011;6733;51.044;3.746;2023-03-31T05:08:10;3.70;;;2.07;;
13327;SDS011;6733;51.044;3.746;2023-03-31T05:10:36;7.57;;;2.67;;
13327;SDS011;6733;51.044;3.746;2023-03-31T05:13:02;6.17;;;3.17;;
13327;SDS011;6733;51.044;3.746;2023-03-31T05:15:28;7.57;;;2.80;;
13327;SDS011;6733;51.044;3.746;2023-03-31T05:17:54;9.20;;;3.20;;
13327;SDS011;6733;51.044;3.746;2023-03-31T05:20:22;8.17;;;2.90;;
13327;SDS011;6733;51.044;3.746;2023-03-31T05:22:48;9.67;;;3.07;;
13327;SDS011;6733;51.044;3.746;2023-03-31T05:25:15;11.40;;;4.40;;
13327;SDS011;6733;51.044;3.746;2023-03-31T05:27:43;11.53;;;3.27;;
13327;SDS011;6733;51.044;3.746;2023-03-31T05:30:14;10.50;;;3.47;;
13327;SDS011;6733;51.044;3.746;2023-03-31T05:32:41;12.40;;;3.67;;
13327;SDS011;6733;51.044;3.746;2023-03-31T05:35:07;10.30;;;3.90;;
13327;SDS011;6733;51.044;3.746;2023-03-31T05:37:33;12.57;;;3.83;;
13327;SDS011;6733;51.044;3.746;2023-03-31T05:40:00;13.07;;;4.17;;
13327;SDS011;6733;51.044;3.746;2023-03-31T05:42:26;13.67;;;4.40;;
13327;SDS011;6733;51.044;3.746;2023-03-31T05:44:52;14.73;;;3.83;;
13327;SDS011;6733;51.044;3.746;2023-03-31T05:47:18;12.23;;;3.67;;
13327;SDS011;6733;51.044;3.746;2023-03-31T05:49:45;12.60;;;4.37;;
13327;SDS011;6733;51.044;3.746;2023-03-31T05:52:11;10.60;;;3.60;;
13327;SDS011;6733;51.044;3.746;2023-03-31T05:54:37;11.73;;;4.13;;
13327;SDS011;6733;51.044;3.746;2023-03-31T05:57:03;12.27;;;4.00;;
13327;SDS011;6733;51.044;3.746;2023-03-31T05:59:29;15.00;;;4.53;;
13327;SDS011;6733;51.044;3.746;2023-03-31T06:01:56;13.37;;;4.63;;
13327;SDS011;6733;51.044;3.746;2023-03-31T06:04:22;11.50;;;3.93;;
13327;SDS011;6733;51.044;3.746;2023-03-31T06:06:49;15.63;;;3.67;;
13327;SDS011;6733;51.044;3.746;2023-03-31T06:09:15;15.47;;;4.57;;
13327;SDS011;6733;51.044;3.746;2023-03-31T06:11:42;10.73;;;3.93;;
13327;SDS011;6733;51.044;3.746;2023-03-31T06:14:08;12.53;;;3.80;;
13327;SDS011;6733;51.044;3.746;2023-03-31T06:16:34;14.53;;;4.47;;
13327;SDS011;6733;51.044;3.746;2023-03-31T06:19:00;11.67;;;4.37;;
13327;SDS011;6733;51.044;3.746;2023-03-31T06:21:26;14.13;;;4.27;;
13327;SDS011;6733;51.044;3.746;2023-03-31T06:23:53;20.03;;;4.70;;
13327;SDS011;6733;51.044;3.746;2023-03-31T06:26:21;15.90;;;4.33;;
13327;SDS011;6733;51.044;3.746;2023-03-31T06:28:49;13.10;;;4.13;;
13327;SDS011;6733;51.044;3.746;2023-03-31T06:31:16;13.93;;;4.60;;
13327;SDS011;6733;51.044;3.746;2023-03-31T06:33:44;15.07;;;4.37;;
13327;SDS011;6733;51.044;3.746;2023-03-31T06:36:11;19.77;;;4.70;;
13327;SDS011;6733;51.044;3.746;2023-03-31T06:38:38;18.33;;;4.77;;
13327;SDS011;6733;51.044;3.746;2023-03-31T06:41:05;16.70;;;5.07;;
13327;SDS011;6733;51.044;3.746;2023-03-31T06:43:32;15.90;;;4.70;;
13327;SDS011;6733;51.044;3.746;2023-03-31T06:45:59;13.43;;;4.40;;
13327;SDS011;6733;51.044;3.746;2023-03-31T06:48:25;16.77;;;5.43;;
13327;SDS011;6733;51.044;3.746;2023-03-31T06:50:52;12.50;;;5.30;;
13327;SDS011;6733;51.044;3.746;2023-03-31T06:53:19;19.80;;;6.10;;
13327;SDS011;6733;51.044;3.746;2023-03-31T06:55:47;17.67;;;4.87;;
13327;SDS011;6733;51.044;3.746;2023-03-31T06:58:13;14.27;;;4.40;;
13327;SDS011;6733;51.044;3.746;2023-03-31T07:00:39;15.00;;;5.07;;
13327;SDS011;6733;51.044;3.746;2023-03-31T07:03:05;18.33;;;5.80;;
13327;SDS011;6733;51.044;3.746;2023-03-31T07:05:33;18.20;;;5.60;;
13327;SDS011;6733;51.044;3.746;2023-03-31T07:07:59;18.03;;;5.60;;
13327;SDS011;6733;51.044;3.746;2023-03-31T07:10:27;23.40;;;6.03;;
13327;SDS011;6733;51.044;3.746;2023-03-31T07:12:54;16.47;;;5.13;;
13327;SDS011;6733;51.044;3.746;2023-03-31T07:15:21;21.93;;;5.63;;
13327;SDS011;6733;51.044;3.746;2023-03-31T07:17:47;30.33;;;5.40;;
13327;SDS011;6733;51.044;3.746;2023-03-31T07:20:16;19.03;;;5.53;;
13327;SDS011;6733;51.044;3.746;2023-03-31T07:22:44;15.03;;;5.10;;
13327;SDS011;6733;51.044;3.746;2023-03-31T07:25:12;22.90;;;5.33;;
13327;SDS011;6733;51.044;3.746;2023-03-31T07:27:40;20.87;;;5.97;;
13327;SDS011;6733;51.044;3.746;2023-03-31T07:30:07;20.27;;;5.67;;
13327;SDS011;6733;51.044;3.746;2023-03-31T07:32:35;16.50;;;5.73;;
13327;SDS011;6733;51.044;3.746;2023-03-31T07:35:06;14.97;;;4.90;;
13327;SDS011;6733;51.044;3.746;2023-03-31T07:37:37;16.70;;;4.93;;
13327;SDS011;6733;51.044;3.746;2023-03-31T07:40:04;18.27;;;5.33;;
13327;SDS011;6733;51.044;3.746;2023-03-31T07:42:32;18.83;;;5.27;;
13327;SDS011;6733;51.044;3.746;2023-03-31T07:44:59;21.67;;;6.87;;
13327;SDS011;6733;51.044;3.746;2023-03-31T07:47:26;19.00;;;5.27;;
13327;SDS011;6733;51.044;3.746;2023-03-31T07:49:52;19.57;;;6.00;;
13327;SDS011;6733;51.044;3.746;2023-03-31T07:52:18;25.00;;;6.37;;
13327;SDS011;6733;51.044;3.746;2023-03-31T07:54:45;15.53;;;5.93;;
13327;SDS011;6733;51.044;3.746;2023-03-31T07:57:11;19.93;;;4.90;;
13327;SDS011;6733;51.044;3.746;2023-03-31T07:59:38;19.77;;;5.30;;
13327;SDS011;6733;51.044;3.746;2023-03-31T08:02:05;24.60;;;8.37;;
13327;SDS011;6733;51.044;3.746;2023-03-31T08:04:31;21.77;;;6.10;;
13327;SDS011;6733;51.044;3.746;2023-03-31T08:06:58;16.83;;;5.57;;
13327;SDS011;6733;51.044;3.746;2023-03-31T08:09:24;20.97;;;5.73;;
13327;SDS011;6733;51.044;3.746;2023-03-31T08:11:50;20.40;;;6.00;;
13327;SDS011;6733;51.044;3.746;2023-03-31T08:14:16;17.00;;;5.27;;
13327;SDS011;6733;51.044;3.746;2023-03-31T08:16:42;18.43;;;5.17;;
13327;SDS011;6733;51.044;3.746;2023-03-31T08:19:08;19.33;;;5.67;;
13327;SDS011;6733;51.044;3.746;2023-03-31T08:21:35;15.67;;;4.73;;
13327;SDS011;6733;51.044;3.746;2023-03-31T08:24:01;15.07;;;4.77;;
13327;SDS011;6733;51.044;3.746;2023-03-31T08:26:27;14.40;;;4.17;;
13327;SDS011;6733;51.044;3.746;2023-03-31T08:28:53;17.03;;;4.80;;
13327;SDS011;6733;51.044;3.746;2023-03-31T08:31:21;12.00;;;4.17;;
13327;SDS011;6733;51.044;3.746;2023-03-31T08:33:48;17.70;;;4.20;;
13327;SDS011;6733;51.044;3.746;2023-03-31T08:36:14;16.00;;;5.00;;
13327;SDS011;6733;51.044;3.746;2023-03-31T08:38:42;17.57;;;4.50;;
13327;SDS011;6733;51.044;3.746;2023-03-31T08:41:25;13.27;;;5.07;;
13327;SDS011;6733;51.044;3.746;2023-03-31T08:43:58;17.40;;;5.27;;
13327;SDS011;6733;51.044;3.746;2023-03-31T08:46:28;15.70;;;4.70;;
13327;SDS011;6733;51.044;3.746;2023-03-31T08:48:57;12.63;;;3.90;;
13327;SDS011;6733;51.044;3.746;2023-03-31T08:51:42;14.97;;;4.80;;
13327;SDS011;6733;51.044;3.746;2023-03-31T08:54:32;11.83;;;3.90;;
13327;SDS011;6733;51.044;3.746;2023-03-31T08:57:02;13.90;;;4.50;;
13327;SDS011;6733;51.044;3.746;2023-03-31T08:59:35;16.90;;;4.63;;
13327;SDS011;6733;51.044;3.746;2023-03-31T09:02:28;17.57;;;5.10;;
13327;SDS011;6733;51.044;3.746;2023-03-31T09:07:39;14.53;;;4.30;;
13327;SDS011;6733;51.044;3.746;2023-03-31T09:10:21;18.10;;;4.77;;
13327;SDS011;6733;51.044;3.746;2023-03-31T09:13:04;16.17;;;5.03;;
13327;SDS011;6733;51.044;3.746;2023-03-31T09:18:47;15.87;;;4.57;;
13327;SDS011;6733;51.044;3.746;2023-03-31T09:21:24;14.67;;;4.70;;
13327;SDS011;6733;51.044;3.746;2023-03-31T09:24:00;19.30;;;4.80;;
13327;SDS011;6733;51.044;3.746;2023-03-31T09:29:21;18.23;;;5.20;;
13327;SDS011;6733;51.044;3.746;2023-03-31T09:32:15;17.70;;;4.87;;
13327;SDS011;6733;51.044;3.746;2023-03-31T09:34:47;15.23;;;4.57;;
13327;SDS011;6733;51.044;3.746;2023-03-31T09:37:17;16.60;;;4.67;;
13327;SDS011;6733;51.044;3.746;2023-03-31T09:39:43;16.67;;;5.13;;
13327;SDS011;6733;51.044;3.746;2023-03-31T09:42:11;22.77;;;4.73;;
13327;SDS011;6733;51.044;3.746;2023-03-31T09:44:39;16.73;;;4.77;;
13327;SDS011;6733;51.044;3.746;2023-03-31T09:47:12;14.10;;;4.80;;
13327;SDS011;6733;51.044;3.746;2023-03-31T09:49:48;23.70;;;5.90;;
13327;SDS011;6733;51.044;3.746;2023-03-31T09:52:30;17.20;;;5.47;;
13327;SDS011;6733;51.044;3.746;2023-03-31T09:55:00;15.03;;;5.03;;
13327;SDS011;6733;51.044;3.746;2023-03-31T09:57:29;16.40;;;5.40;;
13327;SDS011;6733;51.044;3.746;2023-03-31T10:00:21;16.97;;;5.93;;
13327;SDS011;6733;51.044;3.746;2023-03-31T10:05:33;18.63;;;5.70;;
13327;SDS011;6733;51.044;3.746;2023-03-31T10:08:53;18.73;;;6.33;;
13327;SDS011;6733;51.044;3.746;2023-03-31T10:10:57;23.07;;;5.37;;
13327;SDS011;6733;51.044;3.746;2023-03-31T10:13:41;20.57;;;5.17;;
13327;SDS011;6733;51.044;3.746;2023-03-31T10:16:12;19.57;;;5.40;;
13327;SDS011;6733;51.044;3.746;2023-03-31T10:18:52;18.07;;;5.50;;
13327;SDS011;6733;51.044;3.746;2023-03-31T10:21:23;22.43;;;5.03;;
13327;SDS011;6733;51.044;3.746;2023-03-31T10:23:51;17.73;;;5.13;;
13327;SDS011;6733;51.044;3.746;2023-03-31T10:26:24;19.80;;;5.67;;
13327;SDS011;6733;51.044;3.746;2023-03-31T10:28:52;15.97;;;4.37;;
13327;SDS011;6733;51.044;3.746;2023-03-31T10:31:23;21.97;;;4.97;;
13327;SDS011;6733;51.044;3.746;2023-03-31T10:33:51;19.87;;;5.77;;
13327;SDS011;6733;51.044;3.746;2023-03-31T10:36:20;13.43;;;4.80;;
13327;SDS011;6733;51.044;3.746;2023-03-31T10:38:50;14.93;;;5.00;;
13327;SDS011;6733;51.044;3.746;2023-03-31T10:41:19;19.80;;;5.57;;
13327;SDS011;6733;51.044;3.746;2023-03-31T10:43:52;18.93;;;5.37;;
13327;SDS011;6733;51.044;3.746;2023-03-31T10:49:22;21.47;;;5.60;;
13327;SDS011;6733;51.044;3.746;2023-03-31T10:51:52;28.33;;;5.70;;
13327;SDS011;6733;51.044;3.746;2023-03-31T10:54:23;11.33;;;4.07;;
13327;SDS011;6733;51.044;3.746;2023-03-31T10:56:51;14.60;;;4.23;;
13327;SDS011;6733;51.044;3.746;2023-03-31T11:18:43;17.07;;;4.13;;
13327;SDS011;6733;51.044;3.746;2023-03-31T11:29:33;8.60;;;3.27;;
13327;SDS011;6733;51.044;3.746;2023-03-31T11:34:54;13.13;;;3.67;;
13327;SDS011;6733;51.044;3.746;2023-03-31T11:40:53;12.37;;;3.40;;
13327;SDS011;6733;51.044;3.746;2023-03-31T11:43:52;16.23;;;4.40;;
13327;SDS011;6733;51.044;3.746;2023-03-31T11:54:32;11.83;;;3.30;;
13327;SDS011;6733;51.044;3.746;2023-03-31T11:57:08;9.37;;;3.30;;
13327;SDS011;6733;51.044;3.746;2023-03-31T11:59:41;12.10;;;3.70;;
13327;SDS011;6733;51.044;3.746;2023-03-31T12:02:14;10.50;;;2.90;;
13327;SDS011;6733;51.044;3.746;2023-03-31T12:04:47;5.30;;;2.70;;
13327;SDS011;6733;51.044;3.746;2023-03-31T12:07:20;12.53;;;2.87;;
13327;SDS011;6733;51.044;3.746;2023-03-31T12:10:12;7.17;;;2.13;;
13327;SDS011;6733;51.044;3.746;2023-03-31T12:12:58;7.10;;;2.73;;
13327;SDS011;6733;51.044;3.746;2023-03-31T12:15:31;10.63;;;3.43;;
13327;SDS011;6733;51.044;3.746;2023-03-31T12:20:50;9.27;;;2.57;;
13327;SDS011;6733;51.044;3.746;2023-03-31T12:23:24;8.83;;;2.50;;
13327;SDS011;6733;51.044;3.746;2023-03-31T12:28:54;4.27;;;1.70;;
13327;SDS011;6733;51.044;3.746;2023-03-31T12:31:27;7.83;;;2.10;;
13327;SDS011;6733;51.044;3.746;2023-03-31T12:34:07;5.17;;;1.97;;
13327;SDS011;6733;51.044;3.746;2023-03-31T12:42:25;4.10;;;1.70;;
13327;SDS011;6733;51.044;3.746;2023-03-31T12:45:14;5.70;;;2.10;;
13327;SDS011;6733;51.044;3.746;2023-03-31T12:53:04;5.67;;;1.97;;
13327;SDS011;6733;51.044;3.746;2023-03-31T12:55:53;4.17;;;1.97;;
13327;SDS011;6733;51.044;3.746;2023-03-31T13:03:42;4.47;;;2.07;;
13327;SDS011;6733;51.044;3.746;2023-03-31T13:06:56;3.30;;;1.50;;
13327;SDS011;6733;51.044;3.746;2023-03-31T13:17:37;6.63;;;1.93;;
13327;SDS011;6733;51.044;3.746;2023-03-31T13:22:58;4.33;;;1.90;;
13327;SDS011;6733;51.044;3.746;2023-03-31T13:30:44;6.43;;;1.73;;
13327;SDS011;6733;51.044;3.746;2023-03-31T13:33:14;4.63;;;2.10;;
13327;SDS011;6733;51.044;3.746;2023-03-31T13:41:39;4.97;;;1.50;;
13327;SDS011;6733;51.044;3.746;2023-03-31T13:44:35;4.10;;;1.50;;
13327;SDS011;6733;51.044;3.746;2023-03-31T13:53:12;3.17;;;1.80;;
13327;SDS011;6733;51.044;3.746;2023-03-31T13:58:32;4.07;;;1.97;;
13327;SDS011;6733;51.044;3.746;2023-03-31T14:04:06;3.37;;;1.87;;
13327;SDS011;6733;51.044;3.746;2023-03-31T14:06:40;5.40;;;2.03;;
13327;SDS011;6733;51.044;3.746;2023-03-31T14:09:18;5.50;;;1.83;;
13327;SDS011;6733;51.044;3.746;2023-03-31T14:11:50;5.13;;;1.80;;
13327;SDS011;6733;51.044;3.746;2023-03-31T14:14:17;7.30;;;1.90;;
13327;SDS011;6733;51.044;3.746;2023-03-31T14:16:50;4.77;;;1.80;;
13327;SDS011;6733;51.044;3.746;2023-03-31T14:22:04;6.20;;;2.30;;
13327;SDS011;6733;51.044;3.746;2023-03-31T14:25:20;6.87;;;2.60;;
13327;SDS011;6733;51.044;3.746;2023-03-31T14:27:57;8.93;;;2.73;;
13327;SDS011;6733;51.044;3.746;2023-03-31T14:30:54;4.73;;;1.90;;
13327;SDS011;6733;51.044;3.746;2023-03-31T14:34:07;5.77;;;1.97;;
13327;SDS011;6733;51.044;3.746;2023-03-31T14:37:04;6.03;;;1.97;;
13327;SDS011;6733;51.044;3.746;2023-03-31T14:39:37;7.37;;;2.10;;
13327;SDS011;6733;51.044;3.746;2023-03-31T14:42:16;5.00;;;2.00;;
13327;SDS011;6733;51.044;3.746;2023-03-31T14:44:46;4.77;;;2.20;;
13327;SDS011;6733;51.044;3.746;2023-03-31T14:49:58;4.73;;;2.10;;
13327;SDS011;6733;51.044;3.746;2023-03-31T14:52:47;6.97;;;1.87;;
13327;SDS011;6733;51.044;3.746;2023-03-31T14:55:17;7.97;;;2.00;;
13327;SDS011;6733;51.044;3.746;2023-03-31T14:57:48;7.87;;;2.17;;
13327;SDS011;6733;51.044;3.746;2023-03-31T15:00:19;5.03;;;2.20;;
13327;SDS011;6733;51.044;3.746;2023-03-31T15:02:51;6.43;;;1.97;;
13327;SDS011;6733;51.044;3.746;2023-03-31T15:05:27;4.87;;;1.97;;
13327;SDS011;6733;51.044;3.746;2023-03-31T15:07:56;8.80;;;2.50;;
13327;SDS011;6733;51.044;3.746;2023-03-31T15:10:48;9.50;;;2.90;;
13327;SDS011;6733;51.044;3.746;2023-03-31T15:15:57;9.30;;;3.47;;
13327;SDS011;6733;51.044;3.746;2023-03-31T15:18:24;10.27;;;4.30;;
13327;SDS011;6733;51.044;3.746;2023-03-31T15:20:52;13.27;;;3.73;;
13327;SDS011;6733;51.044;3.746;2023-03-31T15:23:22;13.00;;;3.97;;
13327;SDS011;6733;51.044;3.746;2023-03-31T15:26:02;14.10;;;3.43;;
13327;SDS011;6733;51.044;3.746;2023-03-31T15:28:37;15.33;;;4.13;;
13327;SDS011;6733;51.044;3.746;2023-03-31T15:31:16;14.70;;;4.07;;
13327;SDS011;6733;51.044;3.746;2023-03-31T15:33:43;14.93;;;4.30;;
13327;SDS011;6733;51.044;3.746;2023-03-31T15:36:10;15.20;;;3.57;;
13327;SDS011;6733;51.044;3.746;2023-03-31T15:38:37;14.97;;;3.90;;
13327;SDS011;6733;51.044;3.746;2023-03-31T15:41:09;11.47;;;3.77;;
13327;SDS011;6733;51.044;3.746;2023-03-31T15:49:04;10.73;;;3.43;;
13327;SDS011;6733;51.044;3.746;2023-03-31T15:51:43;13.00;;;4.17;;
13327;SDS011;6733;51.044;3.746;2023-03-31T15:54:31;13.50;;;4.10;;
13327;SDS011;6733;51.044;3.746;2023-03-31T15:56:58;11.87;;;3.60;;
13327;SDS011;6733;51.044;3.746;2023-03-31T15:59:26;11.13;;;4.03;;
13327;SDS011;6733;51.044;3.746;2023-03-31T16:02:09;9.50;;;4.00;;
13327;SDS011;6733;51.044;3.746;2023-03-31T16:04:41;11.13;;;3.73;;
13327;SDS011;6733;51.044;3.746;2023-03-31T16:07:08;13.90;;;3.83;;
13327;SDS011;6733;51.044;3.746;2023-03-31T16:09:45;15.97;;;4.03;;
13327;SDS011;6733;51.044;3.746;2023-03-31T16:12:22;13.17;;;4.10;;
13327;SDS011;6733;51.044;3.746;2023-03-31T16:17:29;14.67;;;4.00;;
13327;SDS011;6733;51.044;3.746;2023-03-31T16:20:02;11.93;;;4.57;;
13327;SDS011;6733;51.044;3.746;2023-03-31T16:22:44;12.33;;;4.40;;
13327;SDS011;6733;51.044;3.746;2023-03-31T16:25:14;14.50;;;3.73;;
13327;SDS011;6733;51.044;3.746;2023-03-31T16:27:45;15.40;;;4.90;;
13327;SDS011;6733;51.044;3.746;2023-03-31T16:30:19;13.93;;;4.57;;
13327;SDS011;6733;51.044;3.746;2023-03-31T16:32:57;25.47;;;4.80;;
13327;SDS011;6733;51.044;3.746;2023-03-31T16:35:29;14.77;;;4.60;;
13327;SDS011;6733;51.044;3.746;2023-03-31T16:37:57;10.90;;;4.90;;
13327;SDS011;6733;51.044;3.746;2023-03-31T16:40:26;11.13;;;3.97;;
13327;SDS011;6733;51.044;3.746;2023-03-31T16:43:20;17.37;;;4.73;;
13327;SDS011;6733;51.044;3.746;2023-03-31T16:45:56;15.97;;;5.07;;
13327;SDS011;6733;51.044;3.746;2023-03-31T16:48:24;13.90;;;5.23;;
13327;SDS011;6733;51.044;3.746;2023-03-31T16:50:52;11.50;;;4.73;;
13327;SDS011;6733;51.044;3.746;2023-03-31T16:53:21;17.17;;;5.23;;
13327;SDS011;6733;51.044;3.746;2023-03-31T16:55:49;16.70;;;4.73;;
13327;SDS011;6733;51.044;3.746;2023-03-31T16:58:16;11.00;;;4.40;;
13327;SDS011;6733;51.044;3.746;2023-03-31T17:00:42;18.30;;;5.37;;
13327;SDS011;6733;51.044;3.746;2023-03-31T17:03:10;15.43;;;4.70;;
13327;SDS011;6733;51.044;3.746;2023-03-31T17:05:39;20.70;;;5.10;;
13327;SDS011;6733;51.044;3.746;2023-03-31T17:08:10;15.37;;;4.83;;
13327;SDS011;6733;51.044;3.746;2023-03-31T17:10:37;17.00;;;4.93;;
13327;SDS011;6733;51.044;3.746;2023-03-31T17:13:04;13.90;;;5.20;;
13327;SDS011;6733;51.044;3.746;2023-03-31T17:15:31;14.43;;;5.23;;
13327;SDS011;6733;51.044;3.746;2023-03-31T17:18:01;20.43;;;4.70;;
13327;SDS011;6733;51.044;3.746;2023-03-31T17:20:28;16.00;;;4.60;;
13327;SDS011;6733;51.044;3.746;2023-03-31T17:22:55;11.43;;;4.27;;
13327;SDS011;6733;51.044;3.746;2023-03-31T17:25:21;20.57;;;5.53;;
13327;SDS011;6733;51.044;3.746;2023-03-31T17:27:47;11.63;;;4.17;;
13327;SDS011;6733;51.044;3.746;2023-03-31T17:30:14;16.63;;;5.30;;
13327;SDS011;6733;51.044;3.746;2023-03-31T17:32:40;16.27;;;4.50;;
13327;SDS011;6733;51.044;3.746;2023-03-31T17:35:07;16.10;;;5.33;;
13327;SDS011;6733;51.044;3.746;2023-03-31T17:37:35;21.50;;;5.50;;
13327;SDS011;6733;51.044;3.746;2023-03-31T17:40:02;24.90;;;6.17;;
13327;SDS011;6733;51.044;3.746;2023-03-31T17:42:29;14.93;;;5.27;;
13327;SDS011;6733;51.044;3.746;2023-03-31T17:44:56;18.87;;;5.47;;
13327;SDS011;6733;51.044;3.746;2023-03-31T17:47:23;19.73;;;5.70;;
13327;SDS011;6733;51.044;3.746;2023-03-31T17:49:49;19.40;;;6.00;;
13327;SDS011;6733;51.044;3.746;2023-03-31T17:52:15;16.37;;;5.80;;
13327;SDS011;6733;51.044;3.746;2023-03-31T17:54:41;16.17;;;5.53;;
13327;SDS011;6733;51.044;3.746;2023-03-31T17:57:08;20.10;;;5.27;;
13327;SDS011;6733;51.044;3.746;2023-03-31T17:59:34;17.80;;;5.33;;
13327;SDS011;6733;51.044;3.746;2023-03-31T18:02:00;25.33;;;6.50;;
13327;SDS011;6733;51.044;3.746;2023-03-31T18:04:26;21.13;;;6.77;;
13327;SDS011;6733;51.044;3.746;2023-03-31T18:06:53;23.00;;;6.73;;
13327;SDS011;6733;51.044;3.746;2023-03-31T18:09:19;17.70;;;5.43;;
13327;SDS011;6733;51.044;3.746;2023-03-31T18:11:45;21.47;;;6.27;;